Time;durP1;ratioP1;P1;durP2;ratioP2;P2;SDS_P1;SDS_P2;PMS_P1;PMS_P2;Temp;Humidity;BMP_temperature;BMP_pressure;BME280_temperature;BME280_humidity;BME280_pressure;Samples;Min_cycle;Max_cycle;Signal;HPM_P1;HPM_P2
2023/12/20 00:01:10;;;;;;;45.47;41.15;;;;;;;0.71;76.94;95283.69;5074632;28;20217;-66
2023/12/20 00:03:39;;;;;;;42.33;38.35;;;;;;;0.72;76.95;95280.66;5074012;28;20503;-66
2023/12/20 00:06:07;;;;;;;41.67;37.72;;;;;;;0.74;76.89;95282.31;5057633;28;20205;-66
2023/12/20 00:08:34;;;;;;;41.70;37.88;;;;;;;0.75;77.52;95276.59;5057167;28;20205;-66
2023/12/20 00:11:01;;;;;;;45.85;41.40;;;;;;;0.73;77.28;95273.38;5074712;28;20282;-66
2023/12/20 00:13:28;;;;;;;49.70;45.05;;;;;;;0.67;77.29;95263.63;5057497;28;20258;-66
2023/12/20 00:16:00;;;;;;;49.97;45.35;;;;;;;0.61;76.90;95260.16;5068089;28;20293;-67
2023/12/20 00:18:29;;;;;;;48.92;44.33;;;;;;;0.62;76.90;95267.22;5094532;28;20626;-67
2023/12/20 00:20:59;;;;;;;47.35;42.75;;;;;;;0.57;76.65;95264.53;5077995;28;20196;-67
2023/12/20 00:23:30;;;;;;;47.60;43.10;;;;;;;0.58;76.37;95249.88;5094922;28;20185;-67
2023/12/20 00:25:57;;;;;;;42.40;38.42;;;;;;;0.60;76.70;95244.97;5094516;28;20279;-67
2023/12/20 00:28:25;;;;;;;37.75;33.97;;;;;;;0.60;77.15;95244.16;5094489;28;20180;-67
2023/12/20 00:30:52;;;;;;;38.28;34.50;;;;;;;0.62;77.34;95244.69;5077633;28;20258;-67
2023/12/20 00:33:24;;;;;;;41.20;37.30;;;;;;;0.51;77.33;95227.69;5077423;28;20197;-67
2023/12/20 00:35:53;;;;;;;41.35;37.47;;;;;;;0.43;77.07;95234.50;5093878;28;20205;-67
2023/12/20 00:38:25;;;;;;;40.13;36.38;;;;;;;0.38;76.53;95225.63;5093677;28;20221;-67
2023/12/20 00:40:55;;;;;;;41.92;38.08;;;;;;;0.33;76.75;95226.50;5094693;28;20249;-67
2023/12/20 00:43:23;;;;;;;41.75;37.85;;;;;;;0.30;76.87;95220.81;5093001;28;20208;-67
2023/12/20 00:45:50;;;;;;;40.38;36.63;;;;;;;0.31;76.90;95217.81;5094772;28;20275;-67
2023/12/20 00:48:17;;;;;;;38.08;34.45;;;;;;;0.30;76.80;95216.19;5094354;28;20254;-67
2023/12/20 00:50:46;;;;;;;38.85;35.10;;;;;;;0.30;76.92;95223.53;5094803;28;20215;-67
2023/12/20 00:53:14;;;;;;;38.55;34.95;;;;;;;0.28;76.48;95221.09;5094467;28;20234;-67
2023/12/20 00:55:41;;;;;;;36.85;33.50;;;;;;;0.28;76.65;95221.09;5095321;28;20185;-67
2023/12/20 00:58:15;;;;;;;40.25;36.50;;;;;;;0.30;76.91;95220.81;5094628;28;20219;-67
2023/12/20 01:00:45;;;;;;;40.13;36.53;;;;;;;0.34;77.20;95217.25;5094369;28;20677;-67
2023/12/20 01:03:12;;;;;;;46.15;41.97;;;;;;;0.36;77.25;95212.31;5079035;28;20572;-67
2023/12/20 01:05:45;;;;;;;43.22;39.22;;;;;;;0.40;77.31;95207.97;5098685;28;20188;-67
2023/12/20 01:08:17;;;;;;;39.03;35.22;;;;;;;0.32;77.13;95205.06;5097757;28;20204;-67
2023/12/20 01:10:46;;;;;;;40.55;36.70;;;;;;;0.31;77.34;95201.53;5080637;28;20232;-67
2023/12/20 01:13:14;;;;;;;43.75;39.78;;;;;;;0.30;77.08;95193.69;5081241;28;20291;-67
2023/12/20 01:15:41;;;;;;;35.40;32.28;;;;;;;0.31;77.23;95198.81;5097732;28;20236;-67
2023/12/20 01:18:09;;;;;;;32.83;29.70;;;;;;;0.33;77.22;95196.66;5079941;28;20265;-67
2023/12/20 01:20:36;;;;;;;33.25;30.25;;;;;;;0.36;77.52;95195.25;5079924;28;20227;-68
2023/12/20 01:23:05;;;;;;;34.95;31.80;;;;;;;0.30;77.02;95193.69;5097913;28;20189;-68
2023/12/20 01:25:34;;;;;;;36.28;32.88;;;;;;;0.28;77.04;95185.81;5080629;28;20192;-68
2023/12/20 01:28:04;;;;;;;36.33;32.95;;;;;;;0.26;76.81;95179.88;5079972;28;20200;-68
2023/12/20 01:30:34;;;;;;;37.85;34.53;;;;;;;0.25;76.64;95172.81;5097360;28;20192;-68
2023/12/20 01:33:00;;;;;;;37.35;33.75;;;;;;;0.26;76.74;95171.75;5080223;28;20220;-68
2023/12/20 01:35:27;;;;;;;36.50;33.10;;;;;;;0.27;77.21;95167.13;5097220;28;20192;-68
2023/12/20 01:37:56;;;;;;;36.20;32.88;;;;;;;0.22;76.32;95163.38;5096762;28;20240;-68
2023/12/20 01:40:24;;;;;;;36.75;33.28;;;;;;;0.17;76.66;95163.41;5096598;28;20189;-67
2023/12/20 01:43:01;;;;;;;38.55;34.85;;;;;;;0.14;76.37;95158.53;5080513;28;20192;-67
2023/12/20 01:45:28;;;;;;;35.55;32.22;;;;;;;0.12;76.58;95149.88;5097490;28;20180;-67
2023/12/20 01:47:58;;;;;;;34.60;31.23;;;;;;;0.13;76.80;95139.84;5097408;28;20701;-68
2023/12/20 01:50:27;;;;;;;36.17;32.88;;;;;;;0.11;76.26;95140.16;5063001;28;20636;-68
2023/12/20 01:52:57;;;;;;;35.88;32.67;;;;;;;0.10;76.65;95138.50;5079659;28;20208;-68
2023/12/20 01:55:25;;;;;;;30.10;27.30;;;;;;;0.08;76.28;95140.72;5096747;28;20210;-68
2023/12/20 01:57:52;;;;;;;30.00;27.20;;;;;;;0.07;76.48;95139.06;5079423;28;20651;-68
2023/12/20 02:00:23;;;;;;;29.50;26.65;;;;;;;0.12;77.12;95132.81;5096330;28;20261;-68
2023/12/20 02:02:54;;;;;;;31.52;28.73;;;;;;;0.10;77.20;95137.69;5095934;28;20230;-67
2023/12/20 02:05:27;;;;;;;33.33;30.13;;;;;;;0.08;76.68;95126.34;5097314;28;20189;-67
2023/12/20 02:07:57;;;;;;;32.00;29.08;;;;;;;0.06;76.37;95126.63;5097308;28;20204;-68
2023/12/20 02:10:25;;;;;;;30.77;27.95;;;;;;;0.06;76.87;95123.91;5096848;28;20299;-68
2023/12/20 02:12:53;;;;;;;31.45;28.60;;;;;;;0.08;76.45;95119.00;5096725;28;20216;-67
2023/12/20 02:15:24;;;;;;;32.33;29.25;;;;;;;0.09;76.82;95119.81;5093212;28;20586;-67
2023/12/20 02:17:52;;;;;;;31.02;28.13;;;;;;;0.06;76.06;95118.47;5096159;28;20212;-67
2023/12/20 02:20:19;;;;;;;30.70;27.90;;;;;;;0.01;76.20;95115.81;5096813;28;20181;-67
2023/12/20 02:22:51;;;;;;;33.17;30.20;;;;;;;-0.03;76.43;95109.34;5096178;28;20616;-67
2023/12/20 02:25:19;;;;;;;32.17;29.27;;;;;;;-0.06;76.32;95107.22;5079788;28;20219;-68
2023/12/20 02:27:55;;;;;;;30.23;27.52;;;;;;;-0.07;76.66;95111.03;5095474;28;20600;-68
2023/12/20 02:30:23;;;;;;;30.17;27.45;;;;;;;-0.07;76.48;95103.69;5096891;28;20200;-68
2023/12/20 02:32:51;;;;;;;32.00;28.88;;;;;;;-0.11;76.57;95093.69;5097324;28;20181;-69
2023/12/20 02:35:19;;;;;;;32.72;29.65;;;;;;;-0.13;76.77;95104.81;5096257;28;20611;-69
2023/12/20 02:37:46;;;;;;;31.88;28.95;;;;;;;-0.16;76.79;95099.16;5079108;28;20214;-69
2023/12/20 02:40:15;;;;;;;32.08;29.08;;;;;;;-0.14;76.61;95091.56;5096052;28;20200;-69
2023/12/20 02:42:44;;;;;;;30.98;28.17;;;;;;;-0.17;76.35;95086.72;5095837;28;20588;-70
2023/12/20 02:45:13;;;;;;;30.85;27.92;;;;;;;-0.25;76.56;95097.06;5096107;28;20191;-70
2023/12/20 02:47:44;;;;;;;30.55;27.75;;;;;;;-0.24;77.05;95097.88;5096280;28;20188;-70
2023/12/20 02:50:13;;;;;;;30.13;27.42;;;;;;;-0.19;77.31;95081.56;5095310;28;20207;-69
2023/12/20 02:52:44;;;;;;;29.08;26.48;;;;;;;-0.16;77.60;95086.41;5096284;28;20393;-69
2023/12/20 02:55:14;;;;;;;30.15;27.23;;;;;;;-0.15;76.98;95089.94;5096142;28;20189;-69
2023/12/20 02:57:43;;;;;;;30.90;28.00;;;;;;;-0.16;77.31;95085.59;5096058;28;20281;-69
2023/12/20 03:00:22;;;;;;;31.70;28.80;;;;;;;-0.16;77.04;95080.19;5078892;28;20236;-69
2023/12/20 03:02:49;;;;;;;31.67;28.77;;;;;;;-0.18;76.41;95083.19;5096029;28;20302;-69
2023/12/20 03:05:20;;;;;;;31.88;28.98;;;;;;;-0.15;76.61;95081.78;5095134;28;20224;-69
2023/12/20 03:07:49;;;;;;;31.13;28.30;;;;;;;-0.19;76.17;95081.56;5095642;28;20662;-68
2023/12/20 03:10:23;;;;;;;32.15;29.17;;;;;;;-0.36;76.16;95081.19;5095470;28;20251;-68
2023/12/20 03:12:54;;;;;;;33.25;30.08;;;;;;;-0.42;76.45;95085.81;5095896;28;20195;-68
2023/12/20 03:15:23;;;;;;;30.95;28.10;;;;;;;-0.42;77.06;95080.41;5069501;28;20232;-68
2023/12/20 03:17:52;;;;;;;32.40;29.30;;;;;;;-0.37;77.30;95083.06;5074261;28;20189;-71
2023/12/20 03:20:26;;;;;;;32.10;29.08;;;;;;;-0.30;77.28;95078.13;5075593;28;20213;-71
2023/12/20 03:22:54;;;;;;;32.92;29.85;;;;;;;-0.31;77.05;95079.22;5057885;28;20227;-71
2023/12/20 03:25:23;;;;;;;32.45;29.45;;;;;;;-0.29;77.20;95073.50;5058640;28;20227;-71
2023/12/20 03:27:51;;;;;;;31.98;29.08;;;;;;;-0.26;77.11;95070.22;5073741;28;20208;-71
2023/12/20 03:30:18;;;;;;;43.30;39.40;;;;;;;-0.29;77.00;95073.50;5057376;28;20535;-71
2023/12/20 03:32:45;;;;;;;35.00;31.85;;;;;;;-0.33;76.72;95062.44;5075100;28;20221;-70
2023/12/20 03:35:13;;;;;;;35.47;32.03;;;;;;;-0.37;76.77;95058.66;5075950;28;20205;-70
2023/12/20 03:37:40;;;;;;;35.13;31.83;;;;;;;-0.46;76.25;95065.00;5057626;28;20254;-70
2023/12/20 03:40:13;;;;;;;46.83;41.70;;;;;;;-0.51;76.57;95063.94;5058103;28;20213;-70
2023/12/20 03:42:40;;;;;;;57.97;46.83;;;;;;;-0.55;76.58;95068.28;5075258;28;20189;-71
2023/12/20 03:45:16;;;;;;;67.30;51.80;;;;;;;-0.58;77.06;95068.03;5074912;28;20189;-71
2023/12/20 03:47:44;;;;;;;51.75;44.83;;;;;;;-0.54;77.11;95064.50;5074911;28;20531;-71
2023/12/20 03:50:10;;;;;;;50.63;43.25;;;;;;;-0.48;76.90;95065.25;5075212;28;20193;-71
2023/12/20 03:52:39;;;;;;;43.45;39.00;;;;;;;-0.45;76.78;95072.81;5074757;28;20201;-71
2023/12/20 03:55:11;;;;;;;42.15;38.08;;;;;;;-0.43;76.58;95059.00;5074703;28;20201;-71
2023/12/20 03:57:38;;;;;;;42.72;38.47;;;;;;;-0.41;76.93;95075.78;5058161;28;20254;-71
2023/12/20 04:00:13;;;;;;;42.70;38.08;;;;;;;-0.41;76.63;95054.09;5074382;28;20259;-71
2023/12/20 04:02:42;;;;;;;42.58;37.88;;;;;;;-0.40;76.88;95053.84;5074962;28;20188;-71
2023/12/20 04:05:11;;;;;;;42.03;37.83;;;;;;;-0.54;76.56;95040.13;5075008;28;20220;-71
2023/12/20 04:07:41;;;;;;;41.85;37.53;;;;;;;-0.60;76.62;95051.28;5075028;28;20235;-70
2023/12/20 04:10:11;;;;;;;42.10;37.78;;;;;;;-0.59;76.64;95044.75;5074867;28;20287;-70
2023/12/20 04:12:38;;;;;;;40.47;36.40;;;;;;;-0.60;76.28;95046.66;5056096;28;20633;-70
2023/12/20 04:15:09;;;;;;;39.70;35.67;;;;;;;-0.67;76.95;95034.53;5054010;28;20229;-70
2023/12/20 04:17:40;;;;;;;37.30;33.63;;;;;;;-0.64;77.06;95039.41;5073805;28;20221;-70
2023/12/20 04:20:12;;;;;;;38.72;34.90;;;;;;;-0.68;77.11;95028.31;5073863;28;20246;-70
2023/12/20 04:22:42;;;;;;;38.08;34.40;;;;;;;-0.75;76.39;95028.63;5057888;28;20262;-70
2023/12/20 04:25:09;;;;;;;37.03;33.42;;;;;;;-0.82;76.38;95021.94;5074855;28;20220;-71
2023/12/20 04:27:36;;;;;;;37.35;33.92;;;;;;;-0.91;76.65;95027.13;5057268;28;20200;-70
2023/12/20 04:30:04;;;;;;;37.05;33.58;;;;;;;-0.88;77.37;95020.34;5074452;28;20204;-70
2023/12/20 04:32:31;;;;;;;36.67;33.05;;;;;;;-0.86;77.18;95024.38;5074695;28;20224;-71
2023/12/20 04:35:04;;;;;;;36.78;33.22;;;;;;;-0.77;77.65;95019.16;5074821;28;20177;-70
2023/12/20 04:37:30;;;;;;;41.58;37.67;;;;;;;-0.81;77.33;95020.81;5057739;28;20208;-70
2023/12/20 04:39:57;;;;;;;46.42;41.88;;;;;;;-0.84;77.58;95010.56;5061711;28;20216;-70
2023/12/20 04:42:25;;;;;;;49.72;44.85;;;;;;;-0.78;78.17;95017.56;5078609;28;20193;-70
2023/12/20 04:44:52;;;;;;;52.22;47.10;;;;;;;-0.77;77.82;95008.34;5061719;28;20193;-70
2023/12/20 04:47:21;;;;;;;47.22;42.63;;;;;;;-0.82;77.88;95009.19;5078307;28;20181;-70
2023/12/20 04:49:51;;;;;;;52.72;47.53;;;;;;;-0.80;77.78;95008.88;5060906;28;20204;-71
2023/12/20 04:52:22;;;;;;;49.95;45.15;;;;;;;-0.79;77.76;95019.47;5078253;28;20181;-70
2023/12/20 04:54:49;;;;;;;47.80;43.13;;;;;;;-0.77;77.93;95016.47;5060777;28;20233;-71
2023/12/20 04:57:17;;;;;;;39.45;35.85;;;;;;;-0.74;77.92;95008.56;5061393;28;20231;-70
2023/12/20 04:59:43;;;;;;;36.78;33.38;;;;;;;-0.67;78.10;95002.03;5060949;28;20217;-71
2023/12/20 05:02:11;;;;;;;36.25;32.85;;;;;;;-0.63;78.27;95000.38;5077811;28;20185;-71
2023/12/20 05:04:38;;;;;;;35.58;32.25;;;;;;;-0.61;78.08;95003.63;5077793;28;20185;-71
2023/12/20 05:07:06;;;;;;;40.20;36.30;;;;;;;-0.60;77.84;95003.31;5060167;28;20224;-71
2023/12/20 05:09:35;;;;;;;35.85;32.45;;;;;;;-0.62;77.41;94994.66;5077893;28;20224;-70
2023/12/20 05:12:02;;;;;;;34.70;31.48;;;;;;;-0.60;77.75;94988.97;5078532;28;20209;-72
2023/12/20 05:14:34;;;;;;;33.42;30.38;;;;;;;-0.59;77.78;94994.09;5061842;28;20235;-71
2023/12/20 05:17:03;;;;;;;33.17;30.05;;;;;;;-0.60;77.52;94989.78;5098897;28;20196;-72
2023/12/20 05:19:31;;;;;;;32.40;29.30;;;;;;;-0.59;77.64;94999.50;5081613;28;20212;-72
2023/12/20 05:21:57;;;;;;;38.45;35.00;;;;;;;-0.58;77.74;94987.59;5098938;28;20223;-72
2023/12/20 05:24:25;;;;;;;31.60;28.70;;;;;;;-0.60;77.59;94987.06;5098939;28;20217;-72
2023/12/20 05:26:54;;;;;;;35.58;32.13;;;;;;;-0.73;76.76;94985.84;5098347;28;20226;-72
2023/12/20 05:29:21;;;;;;;35.85;32.45;;;;;;;-0.79;77.12;94984.25;5098082;28;20242;-72
2023/12/20 05:31:49;;;;;;;37.40;33.97;;;;;;;-0.80;77.33;94982.66;5081265;28;20193;-72
2023/12/20 05:34:19;;;;;;;34.40;31.05;;;;;;;-0.77;77.18;94975.84;5064427;28;20214;-72
2023/12/20 05:36:49;;;;;;;33.25;29.92;;;;;;;-0.78;77.26;94980.44;5097206;28;20687;-70
2023/12/20 05:39:18;;;;;;;36.15;32.63;;;;;;;-0.89;77.04;94973.50;5097621;28;20209;-70
2023/12/20 05:41:46;;;;;;;32.47;29.13;;;;;;;-0.88;77.00;94975.09;5097647;28;20188;-71
2023/12/20 05:44:15;;;;;;;31.13;28.02;;;;;;;-0.89;77.35;94975.41;5097588;28;20181;-73
2023/12/20 05:46:43;;;;;;;29.08;26.05;;;;;;;-0.89;76.99;94978.91;5096639;28;20298;-74
2023/12/20 05:49:10;;;;;;;33.22;30.05;;;;;;;-0.90;77.14;94971.09;5096470;28;20232;-70
2023/12/20 05:51:39;;;;;;;31.65;28.48;;;;;;;-0.90;76.98;94971.88;5096946;28;20181;-70
2023/12/20 05:54:06;;;;;;;45.80;41.33;;;;;;;-0.94;77.42;94976.25;5097434;28;20200;-70
2023/12/20 05:56:33;;;;;;;49.70;44.83;;;;;;;-1.05;76.86;94972.81;5079672;28;20214;-70
2023/12/20 05:59:00;;;;;;;61.03;54.92;;;;;;;-1.23;76.81;94970.78;5097226;28;20246;-69
2023/12/20 06:01:30;;;;;;;61.88;55.63;;;;;;;-1.35;77.40;94964.88;5097088;28;20208;-70
2023/12/20 06:04:01;;;;;;;63.80;57.42;;;;;;;-1.35;77.64;94959.47;5096237;28;20192;-72
2023/12/20 06:06:30;;;;;;;65.18;58.65;;;;;;;-1.35;77.62;94960.28;5097048;28;20212;-73
2023/12/20 06:08:59;;;;;;;67.10;60.38;;;;;;;-1.34;77.85;94961.91;5096421;28;20257;-72
2023/12/20 06:11:27;;;;;;;66.25;59.47;;;;;;;-1.40;77.44;94973.03;5095388;28;20299;-72
2023/12/20 06:13:55;;;;;;;67.57;60.63;;;;;;;-1.43;77.93;94960.06;5097279;28;20196;-73
2023/12/20 06:16:23;;;;;;;73.35;63.22;;;;;;;-1.35;78.19;94968.41;4902047;28;4555513;-70
2023/12/20 06:18:52;;;;;;;73.15;64.47;;;;;;;-1.24;78.48;94969.94;5076940;28;20189;-70
2023/12/20 06:21:22;;;;;;;72.03;61.47;;;;;;;-1.11;78.36;94978.53;5076655;28;20271;-70
2023/12/20 06:23:50;;;;;;;71.97;57.28;;;;;;;-1.04;78.67;94974.41;5076238;28;20543;-70
2023/12/20 06:26:19;;;;;;;64.60;50.00;;;;;;;-0.97;78.95;94971.41;5076512;28;20232;-70
2023/12/20 06:28:46;;;;;;;37.50;30.67;;;;;;;-0.93;79.18;94968.94;5075521;28;20208;-70
2023/12/20 06:31:16;;;;;;;35.15;28.95;;;;;;;-0.88;79.65;94968.88;5059125;28;20181;-70
2023/12/20 06:33:46;;;;;;;35.38;29.13;;;;;;;-0.85;80.12;94962.91;5076320;28;20257;-71
2023/12/20 06:36:18;;;;;;;33.85;29.65;;;;;;;-0.82;80.14;94967.75;5058991;28;20196;-71
2023/12/20 06:38:47;;;;;;;32.13;28.80;;;;;;;-0.83;79.89;94958.84;5077246;28;20211;-72
2023/12/20 06:41:15;;;;;;;33.10;29.52;;;;;;;-0.84;79.61;94961.81;5059076;28;20209;-72
2023/12/20 06:43:42;;;;;;;28.20;25.30;;;;;;;-0.82;79.02;94957.72;5076117;28;20189;-72
2023/12/20 06:46:09;;;;;;;21.48;19.38;;;;;;;-0.83;78.30;94953.41;5075821;28;20272;-72
2023/12/20 06:48:36;;;;;;;19.88;17.90;;;;;;;-0.82;77.81;94951.50;5058567;28;20197;-72
2023/12/20 06:51:04;;;;;;;20.25;18.35;;;;;;;-0.79;78.06;94946.34;5076055;28;20228;-72
2023/12/20 06:53:32;;;;;;;18.60;16.85;;;;;;;-0.80;77.50;94939.31;5058742;28;20185;-70
2023/12/20 06:56:03;;;;;;;20.50;18.27;;;;;;;-0.85;77.19;94943.94;5075191;28;20209;-70
2023/12/20 06:58:30;;;;;;;22.48;18.33;;;;;;;-0.86;77.47;94937.72;5076394;28;20185;-71
2023/12/20 07:00:57;;;;;;;21.73;19.63;;;;;;;-0.84;77.64;94940.94;5076245;28;20205;-71
2023/12/20 07:03:24;;;;;;;21.25;19.08;;;;;;;-0.82;77.43;94932.56;5075978;28;20189;-71
2023/12/20 07:05:51;;;;;;;21.30;19.15;;;;;;;-0.75;77.71;94936.56;5075596;28;20178;-72
2023/12/20 07:08:19;;;;;;;22.67;20.40;;;;;;;-0.71;77.68;94930.56;5075542;28;20200;-71
2023/12/20 07:10:47;;;;;;;22.40;20.08;;;;;;;-0.71;77.60;94925.94;5058088;28;20189;-71
2023/12/20 07:13:16;;;;;;;23.13;20.88;;;;;;;-0.65;77.72;94932.16;5075565;28;20181;-71
2023/12/20 07:15:43;;;;;;;26.10;23.42;;;;;;;-0.66;77.65;94931.31;5057728;28;20229;-71
2023/12/20 07:18:16;;;;;;;25.58;23.05;;;;;;;-0.68;77.40;94928.09;5074685;28;20243;-72
2023/12/20 07:20:43;;;;;;;27.20;24.38;;;;;;;-0.69;77.43;94923.78;5059056;28;20213;-72
2023/12/20 07:23:14;;;;;;;25.35;22.80;;;;;;;-0.73;77.24;94928.97;5075207;28;20203;-70
2023/12/20 07:25:45;;;;;;;26.83;24.05;;;;;;;-0.68;77.49;94924.59;5075603;28;20185;-72
2023/12/20 07:28:16;;;;;;;26.73;24.08;;;;;;;-0.67;77.98;94915.34;5075310;28;20185;-71
2023/12/20 07:30:45;;;;;;;31.80;28.50;;;;;;;-0.58;77.64;94919.88;5074984;28;20580;-71
2023/12/20 07:33:15;;;;;;;34.13;30.65;;;;;;;-0.59;77.75;94912.03;5075917;28;20189;-72
2023/12/20 07:35:45;;;;;;;40.05;35.85;;;;;;;-0.46;78.06;94913.25;5075004;28;20181;-72
2023/12/20 07:38:15;;;;;;;39.17;35.08;;;;;;;-0.32;78.34;94906.88;5075643;28;20209;-71
2023/12/20 07:40:42;;;;;;;39.80;35.70;;;;;;;-0.11;78.24;94920.16;5074524;28;20231;-72
2023/12/20 07:43:11;;;;;;;42.00;37.70;;;;;;;-0.08;77.52;94920.41;5057635;28;20523;-72
2023/12/20 07:45:40;;;;;;;45.50;40.95;;;;;;;-0.05;77.51;94908.97;5075249;28;20184;-72
2023/12/20 07:48:08;;;;;;;53.55;48.17;;;;;;;-0.03;77.53;94911.41;5075172;28;20258;-72
2023/12/20 07:50:35;;;;;;;51.03;45.70;;;;;;;-0.03;77.33;94908.69;5057124;28;20209;-72
2023/12/20 07:53:06;;;;;;;55.05;49.42;;;;;;;-0.07;77.43;94913.91;5058412;28;20200;-71
2023/12/20 07:55:35;;;;;;;63.67;55.38;;;;;;;-0.07;77.39;94911.19;5057418;28;20262;-71
2023/12/20 07:58:04;;;;;;;74.47;63.97;;;;;;;-0.05;77.56;94913.59;5075203;28;20219;-71
2023/12/20 08:00:34;;;;;;;90.35;76.13;;;;;;;-0.02;78.28;94913.03;5057920;28;20224;-72
2023/12/20 08:03:06;;;;;;;95.63;83.00;;;;;;;0.00;78.16;94897.28;5074735;28;20195;-72
2023/12/20 08:05:34;;;;;;;103.15;85.68;;;;;;;0.03;78.06;94896.69;5058331;28;20228;-69
2023/12/20 08:08:02;;;;;;;98.20;83.47;;;;;;;0.12;77.93;94899.56;5074698;28;20243;-69
2023/12/20 08:10:29;;;;;;;98.60;87.88;;;;;;;0.22;78.28;94894.81;5057372;28;20235;-69
2023/12/20 08:12:56;;;;;;;89.93;78.07;;;;;;;0.31;78.18;94894.97;5076162;28;20287;-68
2023/12/20 08:15:24;;;;;;;90.80;80.35;;;;;;;0.55;78.39;94885.97;5084566;28;20232;-68
2023/12/20 08:17:54;;;;;;;84.72;72.63;;;;;;;0.78;78.12;94882.34;5081479;28;20208;-68
2023/12/20 08:20:26;;;;;;;88.55;76.63;;;;;;;0.90;77.53;94885.38;5098869;28;20200;-68
2023/12/20 08:22:56;;;;;;;84.85;72.15;;;;;;;0.95;77.18;94887.22;5082089;28;20249;-68
2023/12/20 08:25:24;;;;;;;76.40;66.53;;;;;;;1.00;76.85;94875.47;5099072;28;20199;-68
2023/12/20 08:27:51;;;;;;;81.72;70.35;;;;;;;1.09;76.38;94885.38;5099046;28;20265;-68
2023/12/20 08:30:21;;;;;;;75.10;65.88;;;;;;;1.06;76.49;94880.53;5099674;28;20208;-68
2023/12/20 08:32:49;;;;;;;65.40;58.40;;;;;;;1.06;76.35;94877.00;5098376;28;20193;-68
2023/12/20 08:35:17;;;;;;;62.10;55.55;;;;;;;1.06;76.58;94879.72;5098908;28;20273;-69
2023/12/20 08:37:45;;;;;;;66.07;59.05;;;;;;;1.02;77.03;94860.50;5098818;28;20220;-68
2023/12/20 08:40:14;;;;;;;80.00;71.10;;;;;;;0.97;76.35;94868.72;5098429;28;20254;-68
2023/12/20 08:42:44;;;;;;;109.15;97.68;;;;;;;0.92;76.81;94861.47;5098773;28;20189;-69
2023/12/20 08:45:15;;;;;;;111.32;99.32;;;;;;;0.89;77.37;94858.53;5099265;28;20184;-68
2023/12/20 08:47:46;;;;;;;109.55;96.15;;;;;;;0.90;77.18;94846.56;5098787;28;20259;-68
2023/12/20 08:50:15;;;;;;;102.10;91.07;;;;;;;0.95;77.56;94852.72;5080573;28;20647;-69
2023/12/20 08:52:46;;;;;;;100.97;90.13;;;;;;;0.99;77.05;94841.28;5080250;28;20212;-68
2023/12/20 08:55:16;;;;;;;92.10;82.32;;;;;;;0.98;77.83;94848.63;5097977;28;20232;-73
2023/12/20 08:57:43;;;;;;;90.22;80.85;;;;;;;1.00;77.34;94842.88;5098191;28;20200;-70
2023/12/20 09:00:11;;;;;;;88.75;79.40;;;;;;;1.00;77.53;94837.44;5097835;28;20276;-70
2023/12/20 09:02:38;;;;;;;89.55;80.18;;;;;;;1.00;77.47;94827.38;5098409;28;20215;-70
2023/12/20 09:05:06;;;;;;;90.65;81.07;;;;;;;1.06;77.62;94826.19;5097857;28;20204;-70
2023/12/20 09:07:32;;;;;;;90.38;80.75;;;;;;;1.10;77.86;94813.63;5098316;28;20222;-71
2023/12/20 09:10:00;;;;;;;94.38;84.47;;;;;;;1.08;77.18;94815.81;5097000;28;20226;-70
2023/12/20 09:12:28;;;;;;;97.45;87.45;;;;;;;1.06;77.20;94807.19;5098271;28;20566;-70
2023/12/20 09:14:55;;;;;;;98.13;88.18;;;;;;;1.06;77.76;94793.59;5098121;28;20327;-71
2023/12/20 09:17:23;;;;;;;96.80;86.68;;;;;;;1.06;77.50;94785.47;5097835;28;20200;-70
2023/12/20 09:19:52;;;;;;;86.80;77.68;;;;;;;1.13;77.70;94779.63;5098289;28;20176;-70
2023/12/20 09:22:19;;;;;;;79.40;71.40;;;;;;;1.18;77.98;94774.91;5097855;28;20588;-70
2023/12/20 09:24:46;;;;;;;76.35;68.60;;;;;;;1.23;77.36;94767.75;5098088;28;20212;-70
2023/12/20 09:27:13;;;;;;;77.43;69.53;;;;;;;1.31;77.62;94753.50;5080227;28;20243;-71
2023/12/20 09:29:44;;;;;;;75.30;67.60;;;;;;;1.36;77.15;94753.38;5097672;28;20617;-71
2023/12/20 09:32:12;;;;;;;70.03;62.78;;;;;;;1.41;77.12;94756.78;5097995;28;20243;-70
2023/12/20 09:34:42;;;;;;;70.95;63.78;;;;;;;1.45;77.18;94759.69;5097516;28;20177;-72
2023/12/20 09:37:09;;;;;;;69.70;62.60;;;;;;;1.48;76.96;94737.34;5098384;28;20209;-72
2023/12/20 09:39:37;;;;;;;72.72;65.03;;;;;;;1.54;77.27;94729.91;5097490;28;20192;-72
2023/12/20 09:42:07;;;;;;;69.07;61.83;;;;;;;1.63;77.59;94728.06;5097547;28;20232;-72
2023/12/20 09:44:40;;;;;;;72.00;64.47;;;;;;;1.69;77.02;94726.88;5080521;28;20200;-72
2023/12/20 09:47:11;;;;;;;78.68;70.82;;;;;;;1.74;77.32;94721.31;5097216;28;20545;-72
2023/12/20 09:49:39;;;;;;;81.32;72.93;;;;;;;1.80;76.95;94730.16;5097957;28;20265;-72
2023/12/20 09:52:07;;;;;;;93.05;83.75;;;;;;;1.87;77.10;94723.19;5080012;28;20631;-72
2023/12/20 09:54:37;;;;;;;95.57;86.30;;;;;;;1.94;77.24;94714.63;5097452;28;20228;-72
2023/12/20 09:57:04;;;;;;;94.25;84.68;;;;;;;2.05;77.07;94702.38;5097327;28;20204;-72
2023/12/20 09:59:31;;;;;;;95.32;85.28;;;;;;;2.13;76.91;94698.13;5097311;28;20273;-72
2023/12/20 10:02:05;;;;;;;104.22;93.75;;;;;;;2.20;76.85;94706.66;5097922;28;20308;-73
2023/12/20 10:04:35;;;;;;;106.50;95.70;;;;;;;2.21;76.92;94697.38;5080321;28;20279;-72
2023/12/20 10:07:06;;;;;;;104.45;93.68;;;;;;;2.26;76.81;94691.03;5097218;28;20242;-72
2023/12/20 10:09:37;;;;;;;109.03;97.72;;;;;;;2.33;76.56;94697.63;5097585;28;20240;-72
2023/12/20 10:12:05;;;;;;;113.15;101.60;;;;;;;2.37;76.77;94693.19;5096935;28;20619;-73
2023/12/20 10:14:38;;;;;;;113.75;101.85;;;;;;;2.36;76.04;94686.13;5076684;28;20216;-72
2023/12/20 10:17:07;;;;;;;120.88;108.50;;;;;;;2.36;75.90;94682.59;5096821;28;20227;-72
2023/12/20 10:19:39;;;;;;;118.32;105.88;;;;;;;2.33;76.02;94670.44;5096585;28;20613;-72
2023/12/20 10:22:06;;;;;;;114.55;102.85;;;;;;;2.34;76.36;94672.03;5096841;28;20208;-72
2023/12/20 10:24:33;;;;;;;111.38;99.70;;;;;;;2.36;76.30;94663.53;5096853;28;20200;-72
2023/12/20 10:27:05;;;;;;;108.15;96.82;;;;;;;2.27;76.16;94658.06;5096745;28;20232;-73
2023/12/20 10:29:35;;;;;;;108.25;96.95;;;;;;;2.24;76.75;94653.22;5063402;28;20297;-73
2023/12/20 10:32:23;;;;;;;111.60;100.18;;;;;;;2.33;76.46;94648.66;5078829;28;20604;-73
2023/12/20 10:34:54;;;;;;;108.15;96.95;;;;;;;2.52;76.69;94643.00;5096286;28;20188;-73
2023/12/20 10:37:22;;;;;;;108.03;96.65;;;;;;;2.68;76.08;94637.13;5077787;28;20229;-73
2023/12/20 10:39:51;;;;;;;91.88;78.72;;;;;;;2.84;76.16;94641.88;5079236;28;20231;-73
2023/12/20 10:42:19;;;;;;;92.65;77.05;;;;;;;3.02;76.73;94620.94;5095448;28;20255;-73
2023/12/20 10:44:49;;;;;;;89.78;78.65;;;;;;;3.18;76.36;94624.03;5096088;28;20511;-73
2023/12/20 10:47:16;;;;;;;108.68;97.38;;;;;;;3.28;75.55;94615.53;5096184;28;20588;-71
2023/12/20 10:49:45;;;;;;;107.75;96.60;;;;;;;3.27;75.23;94613.94;5096642;28;20214;-73
2023/12/20 10:52:16;;;;;;;100.53;90.28;;;;;;;3.31;75.24;94604.00;5096046;28;20221;-74
2023/12/20 10:54:45;;;;;;;106.82;95.97;;;;;;;3.35;75.07;94604.97;5096029;28;20195;-73
2023/12/20 10:57:13;;;;;;;106.88;95.57;;;;;;;3.42;75.35;94607.25;5096200;28;20196;-73
2023/12/20 10:59:45;;;;;;;102.57;92.50;;;;;;;3.49;75.53;94604.03;5096252;28;20173;-73
2023/12/20 11:02:12;;;;;;;91.07;81.75;;;;;;;3.54;74.57;94595.69;5095613;28;20662;-72
2023/12/20 11:04:55;;;;;;;91.45;81.93;;;;;;;3.59;74.72;94584.63;5095199;28;20574;-73
2023/12/20 11:07:29;;;;;;;88.55;79.32;;;;;;;3.68;74.46;94579.19;5078031;28;20704;-73
2023/12/20 11:10:01;;;;;;;98.60;88.35;;;;;;;3.79;74.53;94578.53;5095928;28;20190;-72
2023/12/20 11:12:39;;;;;;;103.18;92.63;;;;;;;4.07;74.72;94570.81;5095641;28;20184;-73
2023/12/20 11:15:08;;;;;;;135.13;121.28;;;;;;;4.58;75.18;94573.72;5094608;28;20227;-72
2023/12/20 11:17:37;;;;;;;141.85;127.20;;;;;;;5.06;74.09;94562.41;5094633;28;20238;-73
2023/12/20 11:20:12;;;;;;;143.52;128.45;;;;;;;5.58;72.10;94550.31;5095547;28;20272;-73
2023/12/20 11:22:42;;;;;;;125.68;112.72;;;;;;;6.06;70.46;94556.38;5094658;28;20218;-73
2023/12/20 11:25:11;;;;;;;112.20;100.43;;;;;;;6.46;68.17;94546.47;5094910;28;20196;-73
2023/12/20 11:27:45;;;;;;;93.78;83.88;;;;;;;7.37;66.34;94543.53;5095689;28;20212;-72